createdAt,value
2023-05-02T00:02:04.742Z,6.00
2023-05-02T00:04:51.662Z,5.35
2023-05-02T00:07:37.837Z,5.97
2023-05-02T00:10:23.846Z,6.05
2023-05-02T00:13:09.715Z,6.32
2023-05-02T00:15:56.122Z,5.93
2023-05-02T00:18:41.994Z,5.47
2023-05-02T00:21:29.422Z,6.65
2023-05-02T00:24:17.532Z,5.95
2023-05-02T00:27:07.032Z,6.40
2023-05-02T00:29:54.081Z,6.88
2023-05-02T00:32:40.873Z,6.63
2023-05-02T00:35:26.569Z,6.28
2023-05-02T00:38:14.693Z,6.57
2023-05-02T00:41:00.855Z,7.45
2023-05-02T00:43:47.445Z,7.53
2023-05-02T00:46:33.212Z,7.60
2023-05-02T00:49:20.190Z,7.22
2023-05-02T00:52:07.833Z,7.25
2023-05-02T00:54:54.558Z,6.82
2023-05-02T00:57:40.992Z,6.65
2023-05-02T01:00:33.031Z,6.93
2023-05-02T01:03:38.588Z,7.05
2023-05-02T01:06:37.888Z,6.20
2023-05-02T01:09:54.206Z,6.70
2023-05-02T01:12:50.287Z,6.28
2023-05-02T01:15:39.277Z,6.68
2023-05-02T01:18:31.941Z,7.25
2023-05-02T01:21:18.006Z,7.18
2023-05-02T01:24:12.786Z,6.32
2023-05-02T01:27:14.725Z,6.97
2023-05-02T01:30:02.657Z,7.40
2023-05-02T01:32:50.227Z,6.93
2023-05-02T01:35:38.064Z,6.63
2023-05-02T01:38:25.381Z,7.22
2023-05-02T01:41:12.734Z,6.93
2023-05-02T01:43:59.769Z,6.63
2023-05-02T01:46:46.692Z,6.75
2023-05-02T01:49:34.004Z,6.88
2023-05-02T01:52:22.000Z,7.13
2023-05-02T01:55:10.014Z,6.53
2023-05-02T01:57:57.780Z,7.32
2023-05-02T02:00:45.625Z,8.13
2023-05-02T02:03:32.252Z,7.97
2023-05-02T02:06:22.037Z,7.43
2023-05-02T02:09:08.896Z,6.95
2023-05-02T02:12:04.419Z,7.88
2023-05-02T02:15:24.799Z,8.82
2023-05-02T02:18:14.822Z,7.20
2023-05-02T02:21:03.009Z,8.07
2023-05-02T02:23:49.993Z,7.20
2023-05-02T02:26:36.843Z,7.53
2023-05-02T02:29:23.094Z,6.47
2023-05-02T02:32:09.306Z,6.82
2023-05-02T02:34:55.601Z,7.13
2023-05-02T02:37:46.468Z,6.78
2023-05-02T02:40:40.962Z,7.38
2023-05-02T02:43:44.470Z,6.80
2023-05-02T02:46:39.896Z,7.20
2023-05-02T02:49:48.549Z,7.20
2023-05-02T02:52:44.308Z,6.68
2023-05-02T02:56:03.183Z,6.82
2023-05-02T02:59:05.903Z,7.40
2023-05-02T03:02:13.367Z,7.35
2023-05-02T03:05:03.367Z,6.30
2023-05-02T03:07:49.716Z,7.32
2023-05-02T03:10:36.016Z,7.00
2023-05-02T03:13:22.768Z,7.20
2023-05-02T03:16:11.543Z,6.93
2023-05-02T03:18:57.833Z,7.60
2023-05-02T03:21:43.741Z,7.97
2023-05-02T03:24:37.559Z,8.05
2023-05-02T03:27:24.147Z,8.15
2023-05-02T03:30:12.380Z,7.53
2023-05-02T03:32:58.516Z,7.68
2023-05-02T03:35:44.924Z,7.07
2023-05-02T03:38:31.631Z,7.97
2023-05-02T03:41:22.980Z,7.82
2023-05-02T03:44:15.047Z,8.10
2023-05-02T03:47:04.334Z,7.07
2023-05-02T03:49:59.440Z,8.38
2023-05-02T03:52:46.958Z,7.95
2023-05-02T03:55:34.209Z,8.10
2023-05-02T03:58:21.350Z,8.63
2023-05-02T04:01:17.231Z,8.02
2023-05-02T04:04:08.740Z,8.38
2023-05-02T04:06:59.995Z,8.43
2023-05-02T04:09:46.735Z,8.20
2023-05-02T04:12:32.893Z,8.10
2023-05-02T04:15:20.134Z,7.70
2023-05-02T04:18:07.810Z,8.63
2023-05-02T04:20:55.075Z,8.50
2023-05-02T04:23:43.738Z,8.45
2023-05-02T04:26:30.051Z,7.97
2023-05-02T04:29:22.922Z,7.95
2023-05-02T04:32:10.668Z,8.32
2023-05-02T04:34:56.937Z,8.18
2023-05-02T04:37:44.326Z,8.50
2023-05-02T04:40:30.711Z,7.78
2023-05-02T04:43:24.579Z,8.48
2023-05-02T04:46:18.050Z,8.05
2023-05-02T04:49:04.166Z,8.77
2023-05-02T04:51:52.180Z,8.57
2023-05-02T04:54:39.402Z,8.40
2023-05-02T04:57:25.704Z,8.70
2023-05-02T05:00:16.284Z,8.73
2023-05-02T05:03:02.894Z,8.73
2023-05-02T05:05:49.581Z,10.50
2023-05-02T05:08:40.241Z,9.55
2023-05-02T05:11:26.931Z,9.68
2023-05-02T05:14:13.070Z,9.68
2023-05-02T05:17:02.578Z,9.38
2023-05-02T05:19:49.318Z,9.55
2023-05-02T05:22:39.951Z,9.35
2023-05-02T05:25:27.801Z,8.85
2023-05-02T05:28:16.036Z,12.13
2023-05-02T05:31:09.584Z,9.93
2023-05-02T05:34:01.539Z,9.10
2023-05-02T05:36:48.200Z,8.68
2023-05-02T05:39:34.900Z,8.75
2023-05-02T05:42:21.508Z,9.80
2023-05-02T05:45:12.490Z,9.80
2023-05-02T05:47:58.645Z,9.43
2023-05-02T05:50:47.630Z,10.13
2023-05-02T05:53:34.356Z,9.57
2023-05-02T05:56:23.443Z,9.65
2023-05-02T05:59:19.526Z,10.23
2023-05-02T06:02:06.972Z,10.45
2023-05-02T06:04:53.907Z,10.20
2023-05-02T06:07:42.535Z,9.70
2023-05-02T06:10:31.522Z,9.85
2023-05-02T06:13:19.295Z,10.30
2023-05-02T06:16:07.042Z,10.70
2023-05-02T06:18:53.854Z,10.52
2023-05-02T06:21:39.877Z,9.30
2023-05-02T06:24:26.329Z,9.60
2023-05-02T06:27:12.219Z,9.82
2023-05-02T06:29:59.109Z,8.95
2023-05-02T06:32:45.093Z,9.57
2023-05-02T06:35:31.958Z,10.05
2023-05-02T06:38:18.687Z,9.50
2023-05-02T06:41:05.571Z,9.82
2023-05-02T06:43:51.752Z,15.65
2023-05-02T06:46:39.106Z,12.20
2023-05-02T06:49:26.557Z,12.23
2023-05-02T06:52:12.553Z,12.00
2023-05-02T06:54:58.873Z,9.80
2023-05-02T06:57:45.533Z,9.85
2023-05-02T07:00:34.989Z,10.02
2023-05-02T07:03:21.552Z,9.30
2023-05-02T07:06:07.515Z,9.10
2023-05-02T07:08:53.689Z,9.45
2023-05-02T07:11:39.473Z,9.13
2023-05-02T07:14:25.708Z,8.88
2023-05-02T07:17:12.170Z,9.20
2023-05-02T07:20:01.277Z,24.00
2023-05-02T07:22:47.513Z,10.98
2023-05-02T07:25:33.708Z,8.82
2023-05-02T07:28:19.934Z,9.65
2023-05-02T07:31:06.678Z,9.57
2023-05-02T07:33:52.702Z,9.40
2023-05-02T07:36:39.697Z,8.45
2023-05-02T07:39:26.179Z,7.32
2023-05-02T07:42:12.642Z,8.25
2023-05-02T07:44:59.434Z,8.35
2023-05-02T07:47:47.010Z,7.57
2023-05-02T07:50:36.959Z,6.65
2023-05-02T07:53:23.078Z,6.43
2023-05-02T07:56:09.083Z,5.20
2023-05-02T07:58:55.356Z,5.53
2023-05-02T08:01:44.922Z,5.32
2023-05-02T08:04:32.348Z,4.88
2023-05-02T08:07:18.470Z,4.57
2023-05-02T08:10:07.840Z,4.05
2023-05-02T08:12:56.244Z,2.97
2023-05-02T08:15:43.005Z,3.53
2023-05-02T08:18:29.230Z,2.60
2023-05-02T08:21:15.542Z,3.03
2023-05-02T08:24:01.534Z,2.33
2023-05-02T08:26:47.655Z,3.63
2023-05-02T08:29:33.587Z,2.42
2023-05-02T08:32:20.838Z,2.30
2023-05-02T08:35:07.682Z,2.10
2023-05-02T08:37:55.910Z,2.13
2023-05-02T08:40:43.079Z,2.25
2023-05-02T08:43:31.896Z,2.20
2023-05-02T08:46:18.081Z,2.25
2023-05-02T08:49:05.626Z,2.03
2023-05-02T08:51:52.005Z,2.28
2023-05-02T08:54:47.850Z,2.03
2023-05-02T08:57:33.512Z,2.35
2023-05-02T09:00:19.967Z,2.47
2023-05-02T09:03:34.676Z,2.30
2023-05-02T09:06:23.123Z,2.17
2023-05-02T09:09:08.842Z,2.50
2023-05-02T09:11:55.348Z,2.70
2023-05-02T09:14:43.923Z,2.50
2023-05-02T09:17:45.516Z,2.30
2023-05-02T09:20:40.516Z,2.47
2023-05-02T09:23:41.527Z,2.72
2023-05-02T09:29:20.960Z,2.60
2023-05-02T09:32:08.116Z,2.67
2023-05-02T09:35:07.983Z,3.10
2023-05-02T09:37:58.081Z,2.67
2023-05-02T09:40:57.923Z,2.67
2023-05-02T09:43:44.415Z,2.90
2023-05-02T09:46:41.134Z,2.95
2023-05-02T09:49:47.042Z,3.85
2023-05-02T09:52:33.885Z,2.80
2023-05-02T09:55:23.313Z,3.75
2023-05-02T09:58:21.775Z,3.30
2023-05-02T10:01:07.751Z,3.85
2023-05-02T10:03:54.627Z,3.75
2023-05-02T10:06:40.970Z,4.28
2023-05-02T10:09:28.528Z,4.63
2023-05-02T10:12:16.628Z,4.13
2023-05-02T10:15:04.543Z,4.22
2023-05-02T10:17:52.556Z,3.92
2023-05-02T10:20:49.706Z,3.95
2023-05-02T10:23:38.666Z,3.97
2023-05-02T10:26:26.295Z,4.57
2023-05-02T10:29:13.050Z,4.13
2023-05-02T10:32:01.795Z,4.25
2023-05-02T10:34:52.092Z,4.45
2023-05-02T10:37:40.611Z,4.28
2023-05-02T10:40:27.869Z,4.55
2023-05-02T10:43:16.829Z,3.92
2023-05-02T10:46:04.389Z,4.32
2023-05-02T10:49:09.835Z,4.72
2023-05-02T10:51:58.109Z,5.30
2023-05-02T10:54:46.420Z,5.03
2023-05-02T10:57:33.263Z,5.32
2023-05-02T11:00:24.379Z,5.30
2023-05-02T11:03:12.640Z,6.00
2023-05-02T11:06:07.220Z,5.72
2023-05-02T11:08:54.259Z,5.72
2023-05-02T11:11:45.878Z,4.93
2023-05-02T11:14:43.771Z,5.70
2023-05-02T11:18:03.692Z,5.63
2023-05-02T11:20:50.742Z,4.45
2023-05-02T11:23:40.720Z,4.57
2023-05-02T11:26:29.179Z,4.43
2023-05-02T11:29:55.113Z,4.07
2023-05-02T11:32:50.973Z,4.80
2023-05-02T11:35:49.202Z,4.25
2023-05-02T11:38:41.441Z,4.30
2023-05-02T11:41:44.133Z,4.18
2023-05-02T11:44:36.091Z,4.05
2023-05-02T11:47:22.729Z,4.22
2023-05-02T11:50:14.907Z,3.65
2023-05-02T11:53:01.828Z,4.72
2023-05-02T11:55:53.381Z,4.63
2023-05-02T11:58:40.981Z,4.45
2023-05-02T12:01:30.410Z,4.28
2023-05-02T12:04:22.068Z,4.43
2023-05-02T12:07:10.156Z,3.83
2023-05-02T12:09:58.184Z,4.15
2023-05-02T12:12:44.536Z,3.72
2023-05-02T12:15:36.387Z,3.88
2023-05-02T12:18:28.444Z,3.63
2023-05-02T12:21:15.536Z,3.75
2023-05-02T12:24:07.204Z,3.30
2023-05-02T12:27:18.058Z,3.35
2023-05-02T12:30:07.013Z,3.20
2023-05-02T12:33:04.119Z,3.35
2023-05-02T12:35:51.287Z,3.33
2023-05-02T12:38:38.005Z,3.03
2023-05-02T12:41:37.197Z,2.80
2023-05-02T12:44:41.553Z,2.40
2023-05-02T12:47:27.579Z,2.03
2023-05-02T12:50:14.195Z,2.20
2023-05-02T12:53:12.549Z,2.00
2023-05-02T12:56:03.921Z,1.70
2023-05-02T12:58:51.159Z,1.92
2023-05-02T13:01:38.226Z,2.00
2023-05-02T13:04:38.986Z,2.97
2023-05-02T13:07:25.651Z,2.45
2023-05-02T13:10:14.707Z,3.15
2023-05-02T13:13:01.782Z,3.60
2023-05-02T13:15:47.636Z,3.72
2023-05-02T13:18:34.252Z,5.63
2023-05-02T13:21:20.482Z,4.93
2023-05-02T13:24:06.904Z,4.90
2023-05-02T13:26:52.747Z,5.57
2023-05-02T13:29:39.254Z,5.15
2023-05-02T13:32:25.892Z,4.40
2023-05-02T13:35:15.960Z,4.72
2023-05-02T13:38:02.500Z,4.27
2023-05-02T13:40:50.053Z,4.95
2023-05-02T13:43:35.958Z,5.72
2023-05-02T13:46:22.571Z,4.85
2023-05-02T13:49:08.512Z,5.05
2023-05-02T13:51:54.966Z,5.30
2023-05-02T13:54:41.056Z,4.70
2023-05-02T13:57:27.433Z,4.90
2023-05-02T14:00:17.096Z,4.57
2023-05-02T14:03:03.696Z,5.15
2023-05-02T14:05:56.102Z,5.53
2023-05-02T14:08:43.537Z,4.88
2023-05-02T14:11:30.026Z,5.22
2023-05-02T14:14:18.079Z,5.30
2023-05-02T14:17:05.758Z,5.90
2023-05-02T14:19:55.091Z,5.53
2023-05-02T14:22:46.374Z,5.15
2023-05-02T14:25:33.029Z,5.32
2023-05-02T14:28:23.089Z,5.10
2023-05-02T14:31:13.002Z,5.35
2023-05-02T14:34:02.724Z,5.28
2023-05-02T14:36:49.094Z,5.05
2023-05-02T14:39:37.992Z,4.97
2023-05-02T14:42:25.196Z,5.50
2023-05-02T14:45:13.625Z,4.53
2023-05-02T14:48:02.008Z,4.65
2023-05-02T14:53:42.425Z,4.75
2023-05-02T14:56:39.791Z,4.60
2023-05-02T14:59:28.965Z,4.70
2023-05-02T15:02:15.322Z,3.47
2023-05-02T15:05:03.269Z,3.67
2023-05-02T15:07:49.705Z,3.65
2023-05-02T15:10:38.154Z,4.75
2023-05-02T15:13:24.533Z,2.90
2023-05-02T15:16:11.591Z,4.35
2023-05-02T15:18:58.438Z,3.30
2023-05-02T15:21:46.753Z,4.40
2023-05-02T15:24:33.440Z,4.00
2023-05-02T15:27:21.003Z,3.50
2023-05-02T15:30:08.752Z,4.28
2023-05-02T15:32:55.685Z,4.22
2023-05-02T15:35:58.748Z,4.00
2023-05-02T15:38:47.381Z,4.30
2023-05-02T15:41:37.858Z,3.47
2023-05-02T15:44:29.041Z,4.38
2023-05-02T15:47:19.662Z,4.50
2023-05-02T15:50:11.007Z,3.97
2023-05-02T15:53:00.630Z,3.60
2023-05-02T15:55:48.716Z,3.92
2023-05-02T15:58:34.670Z,3.90
2023-05-02T16:01:24.682Z,3.88
2023-05-02T16:04:21.159Z,3.30
2023-05-02T16:07:13.953Z,3.60
2023-05-02T16:10:11.136Z,3.90
2023-05-02T16:12:59.365Z,3.33
2023-05-02T16:15:59.670Z,3.38
2023-05-02T16:18:51.637Z,3.15
2023-05-02T16:21:48.942Z,3.50
2023-05-02T16:24:43.283Z,3.15
2023-05-02T16:27:31.058Z,3.22
2023-05-02T16:30:18.068Z,2.53
2023-05-02T16:33:04.675Z,2.58
2023-05-02T16:36:01.797Z,3.22
2023-05-02T16:38:48.141Z,2.50
2023-05-02T16:41:36.168Z,2.40
2023-05-02T16:44:22.483Z,2.20
2023-05-02T16:47:09.385Z,2.75
2023-05-02T16:49:58.618Z,2.63
2023-05-02T16:52:45.897Z,3.20
2023-05-02T16:55:32.320Z,3.35
2023-05-02T16:58:18.761Z,2.33
2023-05-02T17:01:12.656Z,2.40
2023-05-02T17:04:00.444Z,2.30
2023-05-02T17:06:49.078Z,2.30
2023-05-02T17:09:37.453Z,2.35
2023-05-02T17:12:25.795Z,2.40
2023-05-02T17:15:14.167Z,2.65
2023-05-02T17:17:59.923Z,2.40
2023-05-02T17:20:47.269Z,2.15
2023-05-02T17:23:33.360Z,2.40
2023-05-02T17:26:19.861Z,2.20
2023-05-02T17:29:05.943Z,2.47
2023-05-02T17:31:52.786Z,2.53
2023-05-02T17:34:39.052Z,2.10
2023-05-02T17:37:26.268Z,2.08
2023-05-02T17:40:12.529Z,2.17
2023-05-02T17:42:59.515Z,2.33
2023-05-02T17:45:45.842Z,2.90
2023-05-02T17:48:32.072Z,1.95
2023-05-02T17:51:18.455Z,2.40
2023-05-02T17:54:05.624Z,3.28
2023-05-02T17:56:52.491Z,4.50
2023-05-02T17:59:40.011Z,4.20
2023-05-02T18:02:27.721Z,3.00
2023-05-02T18:05:14.297Z,4.35
2023-05-02T18:07:59.795Z,3.67
2023-05-02T18:10:46.863Z,4.55
2023-05-02T18:13:34.452Z,3.15
2023-05-02T18:16:22.594Z,4.20
2023-05-02T18:19:08.598Z,4.88
2023-05-02T18:21:55.170Z,3.60
2023-05-02T18:24:41.804Z,3.63
2023-05-02T18:27:28.875Z,3.55
2023-05-02T18:30:15.001Z,3.58
2023-05-02T18:33:01.834Z,3.40
2023-05-02T18:35:49.288Z,4.07
2023-05-02T18:38:37.587Z,4.45
2023-05-02T18:41:23.460Z,4.60
2023-05-02T18:44:11.534Z,3.75
2023-05-02T18:47:01.181Z,4.90
2023-05-02T18:49:48.220Z,4.72
2023-05-02T18:52:34.582Z,4.55
2023-05-02T18:55:24.922Z,4.68
2023-05-02T18:58:11.172Z,4.63
2023-05-02T19:00:58.616Z,4.10
2023-05-02T19:03:45.628Z,3.90
2023-05-02T19:06:33.921Z,4.32
2023-05-02T19:09:22.030Z,4.10
2023-05-02T19:12:09.802Z,4.85
2023-05-02T19:14:57.818Z,4.13
2023-05-02T19:17:45.210Z,4.25
2023-05-02T19:20:33.785Z,4.80
2023-05-02T19:23:22.081Z,4.88
2023-05-02T19:26:13.269Z,5.18
2023-05-02T19:29:01.318Z,4.57
2023-05-02T19:31:47.847Z,4.55
2023-05-02T19:34:37.181Z,5.13
2023-05-02T19:37:23.851Z,4.68
2023-05-02T19:40:13.639Z,4.82
2023-05-02T19:43:00.442Z,5.80
2023-05-02T19:45:47.150Z,4.93
2023-05-02T19:48:33.520Z,6.13
2023-05-02T19:51:25.365Z,6.10
2023-05-02T19:54:11.984Z,6.85
2023-05-02T19:56:59.934Z,6.68
2023-05-02T19:59:48.783Z,6.85
2023-05-02T20:02:37.191Z,7.03
2023-05-02T20:05:24.597Z,7.88
2023-05-02T20:08:11.969Z,7.55
2023-05-02T20:11:01.635Z,8.25
2023-05-02T20:13:49.615Z,7.30
2023-05-02T20:16:37.236Z,6.68
2023-05-02T20:19:25.532Z,6.32
2023-05-02T20:22:13.458Z,7.18
2023-05-02T20:25:01.371Z,6.20
2023-05-02T20:27:48.962Z,5.40
2023-05-02T20:30:39.528Z,5.05
2023-05-02T20:33:37.040Z,4.60
2023-05-02T20:36:32.898Z,4.10
2023-05-02T20:39:22.108Z,4.70
2023-05-02T20:42:10.403Z,5.30
2023-05-02T20:44:59.526Z,5.60
2023-05-02T20:47:48.740Z,4.63
2023-05-02T20:50:36.557Z,6.22
2023-05-02T20:53:24.466Z,5.93
2023-05-02T20:56:11.561Z,5.90
2023-05-02T20:58:59.906Z,4.90
2023-05-02T21:01:47.699Z,5.13
2023-05-02T21:04:35.345Z,4.70
2023-05-02T21:07:22.395Z,4.55
2023-05-02T21:10:10.562Z,4.20
2023-05-02T21:12:57.670Z,5.50
2023-05-02T21:15:44.930Z,4.97
2023-05-02T21:18:32.213Z,4.88
2023-05-02T21:21:21.116Z,3.72
2023-05-02T21:24:10.008Z,3.90
2023-05-02T21:26:58.877Z,4.10
2023-05-02T21:29:46.127Z,4.95
2023-05-02T21:32:34.121Z,5.22
2023-05-02T21:35:20.666Z,4.30
2023-05-02T21:38:07.685Z,4.93
2023-05-02T21:40:53.922Z,4.53
2023-05-02T21:43:40.584Z,4.50
2023-05-02T21:46:26.818Z,4.55
2023-05-02T21:49:13.282Z,4.40
2023-05-02T21:51:59.312Z,4.00
2023-05-02T21:54:50.086Z,3.67
2023-05-02T22:00:24.793Z,3.97
2023-05-02T22:03:47.606Z,3.67
2023-05-02T22:06:34.734Z,3.85
2023-05-02T22:09:23.594Z,3.67
2023-05-02T22:12:10.045Z,3.97
2023-05-02T22:14:56.147Z,4.22
2023-05-02T22:17:43.501Z,4.22
2023-05-02T22:20:29.768Z,4.57
2023-05-02T22:23:16.561Z,4.40
2023-05-02T22:26:02.954Z,4.72
2023-05-02T22:28:49.784Z,4.32
2023-05-02T22:31:36.170Z,4.05
2023-05-02T22:34:23.213Z,4.55
2023-05-02T22:37:09.069Z,4.60
2023-05-02T22:39:56.015Z,4.47
2023-05-02T22:42:42.807Z,4.50
2023-05-02T22:45:29.396Z,4.18
2023-05-02T22:48:16.692Z,4.22
2023-05-02T22:51:04.024Z,4.32
2023-05-02T22:53:50.382Z,4.38
2023-05-02T22:56:37.190Z,4.03
2023-05-02T22:59:23.383Z,4.22
2023-05-02T23:02:14.478Z,4.05
2023-05-02T23:05:01.626Z,4.65
2023-05-02T23:07:49.808Z,4.82
2023-05-02T23:10:36.327Z,4.28
2023-05-02T23:13:24.263Z,4.45
2023-05-02T23:16:10.422Z,3.92
2023-05-02T23:18:57.231Z,4.07
2023-05-02T23:21:43.436Z,4.30
2023-05-02T23:24:30.636Z,3.90
2023-05-02T23:27:17.025Z,3.80
2023-05-02T23:30:04.319Z,4.57
2023-05-02T23:32:51.728Z,4.93
2023-05-02T23:35:38.716Z,4.90
2023-05-02T23:38:25.647Z,4.90
2023-05-02T23:41:12.401Z,4.50
2023-05-02T23:43:58.436Z,4.38
2023-05-02T23:46:45.127Z,4.97
2023-05-02T23:49:31.535Z,4.85
2023-05-02T23:52:18.346Z,4.38
2023-05-02T23:55:10.991Z,4.60
2023-05-02T23:57:57.824Z,4.97
